createdAt,value
2023-05-23T00:00:03.362Z,94596.34
2023-05-23T00:02:29.793Z,94601.78
2023-05-23T00:04:56.209Z,94599.44
2023-05-23T00:07:22.581Z,94605.00
2023-05-23T00:09:48.957Z,94602.09
2023-05-23T00:12:15.337Z,94600.03
2023-05-23T00:14:41.713Z,94604.31
2023-05-23T00:17:08.221Z,94605.59
2023-05-23T00:19:34.869Z,94602.91
2023-05-23T00:22:01.390Z,94603.88
2023-05-23T00:24:27.739Z,94595.06
2023-05-23T00:26:54.148Z,94599.78
2023-05-23T00:29:20.506Z,94598.44
2023-05-23T00:31:47.236Z,94597.59
2023-05-23T00:34:13.953Z,94601.44
2023-05-23T00:36:40.374Z,94595.97
2023-05-23T00:39:06.767Z,94595.06
2023-05-23T00:41:33.138Z,94600.50
2023-05-23T00:43:59.522Z,94592.03
2023-05-23T00:46:25.936Z,94587.41
2023-05-23T00:48:52.333Z,94584.38
2023-05-23T00:51:18.706Z,94589.13
2023-05-23T00:53:45.057Z,94582.47
2023-05-23T00:56:11.421Z,94581.00
2023-05-23T00:58:37.793Z,94581.59
2023-05-23T01:01:04.179Z,94580.22
2023-05-23T01:03:30.625Z,94586.00
2023-05-23T01:05:57.041Z,94579.06
2023-05-23T01:08:23.388Z,94580.78
2023-05-23T01:10:49.727Z,94581.13
2023-05-23T01:13:16.138Z,94584.03
2023-05-23T01:15:42.782Z,94579.59
2023-05-23T01:18:09.401Z,94587.69
2023-05-23T01:20:35.792Z,94583.72
2023-05-23T01:23:02.211Z,94586.44
2023-05-23T01:25:28.593Z,94591.47
2023-05-23T01:27:54.947Z,94591.69
2023-05-23T01:30:21.337Z,94586.59
2023-05-23T01:32:47.715Z,94585.63
2023-05-23T01:35:14.088Z,94594.66
2023-05-23T01:37:40.475Z,94591.41
2023-05-23T01:40:06.850Z,94592.34
2023-05-23T01:42:33.233Z,94592.59
2023-05-23T01:44:59.768Z,94594.94
2023-05-23T01:47:26.162Z,94593.16
2023-05-23T01:49:52.541Z,94590.81
2023-05-23T01:52:18.924Z,94595.88
2023-05-23T01:54:45.328Z,94592.34
2023-05-23T01:57:11.850Z,94586.22
2023-05-23T01:59:38.262Z,94592.69
2023-05-23T02:02:04.672Z,94583.56
2023-05-23T02:04:31.087Z,94581.94
2023-05-23T02:06:57.462Z,94594.63
2023-05-23T02:09:23.832Z,94592.41
2023-05-23T02:11:50.215Z,94594.28
2023-05-23T02:14:16.592Z,94590.56
2023-05-23T02:16:43.039Z,94592.25
2023-05-23T02:19:09.432Z,94591.22
2023-05-23T02:21:35.927Z,94599.22
2023-05-23T02:24:02.295Z,94589.66
2023-05-23T02:26:28.668Z,94598.66
2023-05-23T02:28:55.061Z,94589.00
2023-05-23T02:31:21.504Z,94588.38
2023-05-23T02:33:47.957Z,94596.41
2023-05-23T02:36:14.330Z,94595.41
2023-05-23T02:38:40.715Z,94597.09
2023-05-23T02:41:07.075Z,94596.91
2023-05-23T02:43:33.449Z,94599.31
2023-05-23T02:45:59.818Z,94607.50
2023-05-23T02:48:26.200Z,94608.84
2023-05-23T02:50:52.679Z,94617.69
2023-05-23T02:53:19.050Z,94615.91
2023-05-23T02:55:45.430Z,94609.78
2023-05-23T02:58:11.795Z,94609.56
2023-05-23T03:00:38.246Z,94606.69
2023-05-23T03:03:04.826Z,94613.41
2023-05-23T03:05:31.258Z,94620.19
2023-05-23T03:07:57.603Z,94615.38
2023-05-23T03:10:23.962Z,94610.50
2023-05-23T03:12:50.317Z,94612.19
2023-05-23T03:15:16.679Z,94615.66
2023-05-23T03:17:43.062Z,94618.50
2023-05-23T03:20:09.449Z,94617.00
2023-05-23T03:22:35.790Z,94612.72
2023-05-23T03:25:02.152Z,94614.69
2023-05-23T03:27:28.518Z,94616.13
2023-05-23T03:29:54.859Z,94619.56
2023-05-23T03:32:21.238Z,94619.56
2023-05-23T03:34:47.648Z,94623.84
2023-05-23T03:37:13.989Z,94631.22
2023-05-23T03:39:40.339Z,94635.50
2023-05-23T03:42:06.697Z,94634.47
2023-05-23T03:44:33.079Z,94633.47
2023-05-23T03:46:59.428Z,94626.56
2023-05-23T03:49:25.771Z,94632.84
2023-05-23T03:51:52.116Z,94628.06
2023-05-23T03:54:18.473Z,94631.75
2023-05-23T03:56:44.816Z,94630.13
2023-05-23T03:59:11.173Z,94640.53
2023-05-23T04:01:37.521Z,94635.84
2023-05-23T04:04:03.938Z,94630.69
2023-05-23T04:06:30.389Z,94633.06
2023-05-23T04:08:56.729Z,94637.75
2023-05-23T04:11:24.100Z,94638.31
2023-05-23T04:13:50.449Z,94635.84
2023-05-23T04:16:16.911Z,94638.06
2023-05-23T04:18:43.360Z,94638.88
2023-05-23T04:21:09.756Z,94650.03
2023-05-23T04:23:37.781Z,94651.06
2023-05-23T04:26:04.181Z,94653.09
2023-05-23T04:28:30.554Z,94653.00
2023-05-23T04:30:56.960Z,94652.94
2023-05-23T04:33:23.533Z,94650.06
2023-05-23T04:35:49.885Z,94661.22
2023-05-23T04:38:16.232Z,94658.16
2023-05-23T04:40:42.617Z,94659.06
2023-05-23T04:43:08.990Z,94656.34
2023-05-23T04:45:35.342Z,94657.53
2023-05-23T04:48:01.748Z,94654.94
2023-05-23T04:50:28.138Z,94663.09
2023-05-23T04:52:54.528Z,94667.50
2023-05-23T04:55:21.052Z,94676.31
2023-05-23T04:57:47.433Z,94666.38
2023-05-23T05:00:13.802Z,94667.59
2023-05-23T05:02:40.178Z,94659.94
2023-05-23T05:05:06.549Z,94656.88
2023-05-23T05:07:32.934Z,94656.97
2023-05-23T05:10:01.055Z,94660.25
2023-05-23T05:12:27.814Z,94658.53
2023-05-23T05:14:54.234Z,94662.72
2023-05-23T05:17:20.659Z,94666.78
2023-05-23T05:19:47.092Z,94664.13
2023-05-23T05:22:13.483Z,94668.34
2023-05-23T05:24:39.856Z,94662.19
2023-05-23T05:27:06.229Z,94660.56
2023-05-23T05:29:32.645Z,94666.94
2023-05-23T05:31:59.005Z,94671.22
2023-05-23T05:34:25.367Z,94670.38
2023-05-23T05:36:51.846Z,94668.06
2023-05-23T05:39:18.229Z,94666.56
2023-05-23T05:41:44.606Z,94669.38
2023-05-23T05:44:10.964Z,94663.94
2023-05-23T05:46:37.394Z,94663.59
2023-05-23T05:49:03.805Z,94662.81
2023-05-23T05:51:30.180Z,94656.56
2023-05-23T05:53:56.539Z,94661.25
2023-05-23T05:56:22.933Z,94657.75
2023-05-23T05:58:49.332Z,94668.22
2023-05-23T06:01:15.697Z,94661.94
2023-05-23T06:03:42.283Z,94659.63
2023-05-23T06:06:08.820Z,94664.53
2023-05-23T06:08:35.179Z,94666.25
2023-05-23T06:11:01.541Z,94669.03
2023-05-23T06:13:27.913Z,94668.81
2023-05-23T06:15:54.449Z,94664.66
2023-05-23T06:18:20.871Z,94664.41
2023-05-23T06:20:47.232Z,94665.97
2023-05-23T06:23:13.590Z,94661.09
2023-05-23T06:25:39.951Z,94664.56
2023-05-23T06:28:06.335Z,94665.63
2023-05-23T06:30:32.692Z,94660.28
2023-05-23T06:32:59.105Z,94666.78
2023-05-23T06:35:25.502Z,94678.25
2023-05-23T06:37:51.878Z,94679.19
2023-05-23T06:40:18.249Z,94682.31
2023-05-23T06:42:45.683Z,94684.66
2023-05-23T06:45:13.727Z,94680.44
2023-05-23T06:47:42.223Z,94697.72
2023-05-23T06:50:08.658Z,94684.25
2023-05-23T06:52:35.051Z,94686.44
2023-05-23T06:55:01.489Z,94681.56
2023-05-23T06:57:27.861Z,94679.59
2023-05-23T06:59:54.252Z,94687.72
2023-05-23T07:02:20.711Z,94687.59
2023-05-23T07:04:47.090Z,94682.72
2023-05-23T07:07:13.471Z,94689.00
2023-05-23T07:09:39.837Z,94690.25
2023-05-23T07:12:06.197Z,94685.34
2023-05-23T07:14:32.549Z,94681.56
2023-05-23T07:16:58.957Z,94684.34
2023-05-23T07:19:25.448Z,94683.97
2023-05-23T07:21:51.858Z,94691.47
2023-05-23T07:24:18.241Z,94696.75
2023-05-23T07:26:44.620Z,94694.47
2023-05-23T07:29:11.002Z,94697.72
2023-05-23T07:31:37.446Z,94692.91
2023-05-23T07:34:03.877Z,94701.84
2023-05-23T07:36:30.279Z,94702.41
2023-05-23T07:38:56.663Z,94699.16
2023-05-23T07:41:23.049Z,94694.22
2023-05-23T07:43:49.406Z,94690.66
2023-05-23T07:46:15.780Z,94703.72
2023-05-23T07:48:42.153Z,94694.22
2023-05-23T07:51:08.527Z,94687.09
2023-05-23T07:53:34.922Z,94696.84
2023-05-23T07:56:01.286Z,94688.28
2023-05-23T07:58:27.643Z,94683.03
2023-05-23T08:00:54.000Z,94686.97
2023-05-23T08:03:20.569Z,94686.25
2023-05-23T08:05:47.059Z,94685.84
2023-05-23T08:08:13.423Z,94686.25
2023-05-23T08:10:39.933Z,94691.50
2023-05-23T08:13:06.396Z,94684.34
2023-05-23T08:15:32.774Z,94686.78
2023-05-23T08:17:59.232Z,94693.84
2023-05-23T08:20:25.627Z,94690.22
2023-05-23T08:22:52.022Z,94694.22
2023-05-23T08:25:18.415Z,94705.22
2023-05-23T08:27:44.785Z,94693.19
2023-05-23T08:30:11.209Z,94699.53
2023-05-23T08:32:37.682Z,94697.38
2023-05-23T08:35:04.096Z,94692.81
2023-05-23T08:37:30.487Z,94701.25
2023-05-23T08:39:56.850Z,94703.56
2023-05-23T08:42:23.261Z,94704.94
2023-05-23T08:44:51.382Z,94710.13
2023-05-23T08:47:18.004Z,94702.56
2023-05-23T08:49:44.367Z,94704.88
2023-05-23T08:52:10.736Z,94704.56
2023-05-23T08:54:37.098Z,94712.91
2023-05-23T08:57:03.555Z,94713.03
2023-05-23T08:59:29.941Z,94716.41
2023-05-23T09:01:56.453Z,94715.00
2023-05-23T09:04:22.892Z,94706.50
2023-05-23T09:06:49.252Z,94707.88
2023-05-23T09:09:15.634Z,94705.69
2023-05-23T09:11:42.000Z,94708.38
2023-05-23T09:14:08.461Z,94696.75
2023-05-23T09:16:35.027Z,94691.38
2023-05-23T09:19:01.551Z,94691.47
2023-05-23T09:21:27.929Z,94686.19
2023-05-23T09:23:54.278Z,94689.59
2023-05-23T09:26:20.642Z,94684.09
2023-05-23T09:28:47.082Z,94695.75
2023-05-23T09:31:13.516Z,94692.44
2023-05-23T09:33:39.885Z,94694.47
2023-05-23T09:36:06.267Z,94684.81
2023-05-23T09:38:32.641Z,94685.13
2023-05-23T09:40:59.024Z,94688.38
2023-05-23T09:43:25.403Z,94685.13
2023-05-23T09:45:51.844Z,94683.63
2023-05-23T09:48:18.232Z,94689.59
2023-05-23T09:50:44.585Z,94678.59
2023-05-23T09:53:10.936Z,94672.41
2023-05-23T09:55:37.338Z,94677.88
2023-05-23T09:58:03.692Z,94678.69
2023-05-23T10:00:30.070Z,94683.56
2023-05-23T10:02:56.495Z,94677.69
2023-05-23T10:05:22.859Z,94681.47
2023-05-23T10:07:49.211Z,94681.75
2023-05-23T10:10:15.578Z,94681.81
2023-05-23T10:12:42.011Z,94682.63
2023-05-23T10:15:08.392Z,94686.13
2023-05-23T10:17:34.796Z,94679.44
2023-05-23T10:20:01.202Z,94667.06
2023-05-23T10:22:27.586Z,94664.09
2023-05-23T10:24:53.951Z,94667.94
2023-05-23T10:27:20.317Z,94672.28
2023-05-23T10:29:46.698Z,94672.56
2023-05-23T10:32:14.979Z,94663.41
2023-05-23T10:34:41.389Z,94677.88
2023-05-23T10:37:07.781Z,94681.44
2023-05-23T10:39:34.202Z,94668.28
2023-05-23T10:42:00.580Z,94669.16
2023-05-23T10:44:26.951Z,94669.38
2023-05-23T10:46:53.380Z,94672.06
2023-05-23T10:49:19.814Z,94669.94
2023-05-23T10:51:46.182Z,94669.44
2023-05-23T10:54:12.556Z,94661.91
2023-05-23T10:56:38.916Z,94663.81
2023-05-23T10:59:05.289Z,94664.63
2023-05-23T11:01:31.714Z,94661.94
2023-05-23T11:03:58.208Z,94664.91
2023-05-23T11:06:24.669Z,94670.56
2023-05-23T11:08:51.034Z,94663.03
2023-05-23T11:11:17.395Z,94656.81
2023-05-23T11:13:43.768Z,94653.31
2023-05-23T11:16:10.210Z,94650.91
2023-05-23T11:18:36.583Z,94656.28
2023-05-23T11:21:02.949Z,94647.41
2023-05-23T11:23:29.313Z,94650.38
2023-05-23T11:25:55.695Z,94648.50
2023-05-23T11:28:22.170Z,94643.88
2023-05-23T11:30:48.564Z,94641.47
2023-05-23T11:33:15.020Z,94650.38
2023-05-23T11:35:41.577Z,94651.72
2023-05-23T11:38:08.003Z,94643.94
2023-05-23T11:40:34.384Z,94644.72
2023-05-23T11:43:00.775Z,94641.78
2023-05-23T11:45:27.213Z,94642.28
2023-05-23T11:47:53.639Z,94642.81
2023-05-23T11:50:20.057Z,94630.97
2023-05-23T11:52:46.450Z,94629.88
2023-05-23T11:55:12.894Z,94627.47
2023-05-23T11:57:39.247Z,94627.97
2023-05-23T12:00:05.611Z,94624.50
2023-05-23T12:02:32.020Z,94633.16
2023-05-23T12:04:58.529Z,94625.31
2023-05-23T12:07:24.961Z,94631.25
2023-05-23T12:09:51.341Z,94637.72
2023-05-23T12:12:17.721Z,94632.88
2023-05-23T12:14:44.117Z,94630.16
2023-05-23T12:17:10.494Z,94625.00
2023-05-23T12:19:36.950Z,94623.41
2023-05-23T12:22:03.412Z,94628.47
2023-05-23T12:24:29.812Z,94622.81
2023-05-23T12:26:56.187Z,94628.16
2023-05-23T12:29:22.548Z,94619.00
2023-05-23T12:31:49.015Z,94627.88
2023-05-23T12:34:15.486Z,94626.75
2023-05-23T12:36:48.626Z,94624.91
2023-05-23T12:39:15.945Z,94629.22
2023-05-23T12:41:42.320Z,94629.25
2023-05-23T12:44:08.676Z,94618.66
2023-05-23T12:46:35.118Z,94623.19
2023-05-23T12:49:01.509Z,94618.06
2023-05-23T12:51:27.883Z,94605.63
2023-05-23T12:53:54.249Z,94614.31
2023-05-23T12:56:20.659Z,94622.41
2023-05-23T12:58:47.033Z,94613.44
2023-05-23T13:01:13.434Z,94607.00
2023-05-23T13:03:39.849Z,94606.34
2023-05-23T13:06:06.257Z,94612.84
2023-05-23T13:08:32.654Z,94604.44
2023-05-23T13:10:59.048Z,94595.69
2023-05-23T13:13:25.416Z,94607.88
2023-05-23T13:15:51.980Z,94603.31
2023-05-23T13:18:18.604Z,94601.50
2023-05-23T13:20:45.100Z,94602.47
2023-05-23T13:23:11.476Z,94598.97
2023-05-23T13:25:37.871Z,94603.06
2023-05-23T13:28:04.343Z,94599.56
2023-05-23T13:30:30.720Z,94596.09
2023-05-23T13:32:57.152Z,94585.78
2023-05-23T13:35:23.571Z,94587.13
2023-05-23T13:37:49.951Z,94586.78
2023-05-23T13:40:16.311Z,94587.88
2023-05-23T13:42:42.700Z,94585.38
2023-05-23T13:45:09.049Z,94583.47
2023-05-23T13:47:35.416Z,94572.69
2023-05-23T13:50:01.802Z,94572.34
2023-05-23T13:52:28.159Z,94568.16
2023-05-23T13:54:54.527Z,94564.75
2023-05-23T13:57:20.894Z,94563.09
2023-05-23T13:59:47.254Z,94554.19
2023-05-23T14:02:15.843Z,94555.28
2023-05-23T14:04:42.252Z,94551.13
2023-05-23T14:07:08.614Z,94554.53
2023-05-23T14:09:35.019Z,94550.41
2023-05-23T14:12:01.365Z,94550.69
2023-05-23T14:14:27.719Z,94555.00
2023-05-23T14:16:54.111Z,94556.66
2023-05-23T14:19:20.547Z,94552.59
2023-05-23T14:21:46.974Z,94547.19
2023-05-23T14:24:13.382Z,94538.72
2023-05-23T14:26:39.764Z,94548.56
2023-05-23T14:29:06.137Z,94545.84
2023-05-23T14:31:32.589Z,94546.06
2023-05-23T14:34:01.549Z,94553.16
2023-05-23T14:36:30.589Z,94561.06
2023-05-23T14:38:57.038Z,94547.88
2023-05-23T14:41:23.401Z,94548.03
2023-05-23T14:43:49.799Z,94548.97
2023-05-23T14:46:16.209Z,94546.97
2023-05-23T14:48:42.627Z,94554.75
2023-05-23T14:51:08.987Z,94547.06
2023-05-23T14:53:35.380Z,94539.47
2023-05-23T14:56:01.753Z,94537.41
2023-05-23T14:58:28.123Z,94532.50
2023-05-23T15:00:54.591Z,94529.66
2023-05-23T15:03:21.133Z,94523.41
2023-05-23T15:05:48.952Z,94536.59
2023-05-23T15:08:15.899Z,94528.78
2023-05-23T15:10:42.369Z,94532.78
2023-05-23T15:13:08.856Z,94526.78
2023-05-23T15:15:35.330Z,94519.06
2023-05-23T15:18:01.759Z,94518.00
2023-05-23T15:20:28.177Z,94516.78
2023-05-23T15:22:54.555Z,94520.53
2023-05-23T15:25:33.932Z,94524.00
2023-05-23T15:28:07.434Z,94528.31
2023-05-23T15:30:33.781Z,94530.06
2023-05-23T15:33:01.766Z,94524.19
2023-05-23T15:35:28.341Z,94529.97
2023-05-23T15:37:54.718Z,94534.78
2023-05-23T15:40:22.490Z,94537.47
2023-05-23T15:42:48.870Z,94540.88
2023-05-23T15:45:15.250Z,94537.16
2023-05-23T15:47:41.688Z,94539.84
2023-05-23T15:50:08.096Z,94538.25
2023-05-23T15:52:34.474Z,94534.88
2023-05-23T15:55:00.847Z,94534.63
2023-05-23T15:57:27.233Z,94529.91
2023-05-23T16:00:01.024Z,94531.25
2023-05-23T16:02:27.448Z,94528.31
2023-05-23T16:04:53.895Z,94523.22
2023-05-23T16:07:27.548Z,94519.00
2023-05-23T16:09:53.927Z,94520.06
2023-05-23T16:12:20.292Z,94521.72
2023-05-23T16:14:46.678Z,94533.06
2023-05-23T16:17:13.078Z,94530.63
2023-05-23T16:19:39.545Z,94538.28
2023-05-23T16:22:05.952Z,94538.53
2023-05-23T16:24:32.334Z,94529.69
2023-05-23T16:26:58.781Z,94527.78
2023-05-23T16:29:25.175Z,94532.94
2023-05-23T16:31:51.563Z,94543.22
2023-05-23T16:34:17.975Z,94539.16
2023-05-23T16:36:44.507Z,94546.72
2023-05-23T16:39:10.881Z,94544.28
2023-05-23T16:41:37.266Z,94539.97
2023-05-23T16:44:03.625Z,94542.41
2023-05-23T16:46:30.030Z,94549.66
2023-05-23T16:48:56.485Z,94546.19
2023-05-23T16:51:22.873Z,94551.53
2023-05-23T16:53:49.263Z,94556.41
2023-05-23T16:56:15.655Z,94554.25
2023-05-23T16:58:42.027Z,94545.59
2023-05-23T17:01:08.533Z,94541.00
2023-05-23T17:03:35.134Z,94546.38
2023-05-23T17:06:01.587Z,94547.22
2023-05-23T17:08:27.960Z,94543.97
2023-05-23T17:10:54.322Z,94552.03
2023-05-23T17:13:20.712Z,94562.47
2023-05-23T17:15:47.127Z,94567.28
2023-05-23T17:18:13.521Z,94564.88
2023-05-23T17:20:39.923Z,94561.09
2023-05-23T17:23:06.296Z,94560.78
2023-05-23T17:25:32.661Z,94572.00
2023-05-23T17:27:59.023Z,94564.44
2023-05-23T17:30:25.398Z,94564.41
2023-05-23T17:32:51.796Z,94560.03
2023-05-23T17:35:18.233Z,94558.44
2023-05-23T17:37:44.607Z,94554.38
2023-05-23T17:40:11.001Z,94561.91
2023-05-23T17:42:37.385Z,94568.25
2023-05-23T17:45:03.785Z,94565.03
2023-05-23T17:47:30.193Z,94574.47
2023-05-23T17:49:56.607Z,94571.56
2023-05-23T17:52:23.022Z,94573.97
2023-05-23T17:54:49.405Z,94583.47
2023-05-23T17:57:15.758Z,94579.91
2023-05-23T17:59:42.168Z,94577.75
2023-05-23T18:02:08.523Z,94578.72
2023-05-23T18:04:35.021Z,94577.38
2023-05-23T18:07:01.516Z,94569.91
2023-05-23T18:09:27.905Z,94569.66
2023-05-23T18:11:54.272Z,94561.59
2023-05-23T18:14:20.694Z,94563.22
2023-05-23T18:16:47.106Z,94567.06
2023-05-23T18:19:13.549Z,94565.53
2023-05-23T18:21:39.918Z,94565.25
2023-05-23T18:24:06.293Z,94566.19
2023-05-23T18:26:32.662Z,94571.50
2023-05-23T18:28:59.050Z,94568.59
2023-05-23T18:31:25.414Z,94568.28
2023-05-23T18:33:51.856Z,94571.81
2023-05-23T18:36:18.260Z,94569.94
2023-05-23T18:38:44.740Z,94566.97
2023-05-23T18:41:13.292Z,94571.50
2023-05-23T18:43:41.051Z,94576.81
2023-05-23T18:46:07.474Z,94579.59
2023-05-23T18:48:35.789Z,94584.38
2023-05-23T18:51:02.493Z,94585.00
2023-05-23T18:53:28.855Z,94576.88
2023-05-23T18:55:55.243Z,94584.31
2023-05-23T18:58:21.623Z,94588.97
2023-05-23T19:00:47.993Z,94589.31
2023-05-23T19:03:14.463Z,94589.59
2023-05-23T19:05:40.944Z,94589.88
2023-05-23T19:08:07.416Z,94602.28
2023-05-23T19:10:33.797Z,94606.94
2023-05-23T19:13:00.186Z,94613.88
2023-05-23T19:15:26.545Z,94621.47
2023-05-23T19:17:52.939Z,94627.34
2023-05-23T19:20:19.320Z,94623.28
2023-05-23T19:22:51.496Z,94626.66
2023-05-23T19:25:18.782Z,94628.44
2023-05-23T19:27:45.138Z,94634.38
2023-05-23T19:30:11.546Z,94633.63
2023-05-23T19:32:38.019Z,94628.41
2023-05-23T19:35:04.564Z,94623.34
2023-05-23T19:37:30.950Z,94638.53
2023-05-23T19:39:57.301Z,94637.84
2023-05-23T19:42:23.684Z,94641.06
2023-05-23T19:44:50.065Z,94638.41
2023-05-23T19:47:16.449Z,94630.69
2023-05-23T19:49:42.814Z,94640.63
2023-05-23T19:52:09.171Z,94641.03
2023-05-23T19:54:35.565Z,94638.28
2023-05-23T19:57:01.950Z,94641.50
2023-05-23T19:59:28.329Z,94636.41
2023-05-23T20:01:54.759Z,94650.50
2023-05-23T20:04:21.149Z,94645.25
2023-05-23T20:06:47.508Z,94651.25
2023-05-23T20:09:13.898Z,94656.59
2023-05-23T20:11:40.248Z,94653.41
2023-05-23T20:14:06.661Z,94659.53
2023-05-23T20:16:33.126Z,94656.03
2023-05-23T20:18:59.539Z,94664.53
2023-05-23T20:21:25.969Z,94663.81
2023-05-23T20:23:52.362Z,94666.56
2023-05-23T20:26:18.748Z,94662.25
2023-05-23T20:28:45.127Z,94671.69
2023-05-23T20:31:11.544Z,94678.94
2023-05-23T20:33:37.918Z,94671.47
2023-05-23T20:36:04.282Z,94686.22
2023-05-23T20:38:30.639Z,94687.84
2023-05-23T20:40:57.009Z,94685.88
2023-05-23T20:43:23.380Z,94686.75
2023-05-23T20:45:49.740Z,94691.50
2023-05-23T20:48:16.155Z,94692.94
2023-05-23T20:50:42.797Z,94688.69
2023-05-23T20:53:09.373Z,94694.22
2023-05-23T20:55:35.760Z,94694.72
2023-05-23T20:58:02.136Z,94698.34
2023-05-23T21:00:28.490Z,94696.72
2023-05-23T21:02:54.944Z,94703.88
2023-05-23T21:05:21.357Z,94704.75
2023-05-23T21:07:47.733Z,94705.34
2023-05-23T21:10:14.101Z,94702.00
2023-05-23T21:12:40.482Z,94700.94
2023-05-23T21:15:06.842Z,94709.28
2023-05-23T21:17:33.218Z,94707.22
2023-05-23T21:19:59.612Z,94708.13
2023-05-23T21:22:25.977Z,94701.66
2023-05-23T21:24:52.340Z,94706.44
2023-05-23T21:27:18.701Z,94710.03
2023-05-23T21:29:45.092Z,94708.28
2023-05-23T21:32:11.449Z,94711.19
2023-05-23T21:34:37.823Z,94711.53
2023-05-23T21:37:04.192Z,94713.31
2023-05-23T21:39:42.992Z,94714.91
2023-05-23T21:42:16.815Z,94717.94
2023-05-23T21:44:43.180Z,94709.84
2023-05-23T21:47:09.548Z,94716.06
2023-05-23T21:49:35.929Z,94710.53
2023-05-23T21:52:02.281Z,94707.84
2023-05-23T21:54:28.656Z,94719.34
2023-05-23T21:56:55.076Z,94729.78
2023-05-23T21:59:21.446Z,94722.69
2023-05-23T22:01:47.822Z,94717.47
2023-05-23T22:04:14.196Z,94709.47
2023-05-23T22:06:40.561Z,94721.31
2023-05-23T22:09:06.925Z,94716.88
2023-05-23T22:11:33.307Z,94725.38
2023-05-23T22:13:59.682Z,94720.38
2023-05-23T22:16:26.127Z,94724.91
2023-05-23T22:18:52.529Z,94715.34
2023-05-23T22:21:18.919Z,94716.22
2023-05-23T22:23:45.298Z,94721.09
2023-05-23T22:26:11.681Z,94722.56
2023-05-23T22:28:38.066Z,94717.91
2023-05-23T22:31:04.507Z,94723.84
2023-05-23T22:33:30.915Z,94717.31
2023-05-23T22:35:57.272Z,94726.22
2023-05-23T22:38:23.653Z,94708.59
2023-05-23T22:40:50.028Z,94714.97
2023-05-23T22:43:16.399Z,94720.38
2023-05-23T22:45:42.805Z,94718.94
2023-05-23T22:48:09.195Z,94724.28
2023-05-23T22:50:35.632Z,94713.94
2023-05-23T22:53:01.986Z,94717.88
2023-05-23T22:55:28.352Z,94714.97
2023-05-23T22:57:54.708Z,94721.84
2023-05-23T23:00:21.086Z,94715.63
2023-05-23T23:02:47.540Z,94720.22
2023-05-23T23:05:13.978Z,94722.69
2023-05-23T23:07:40.368Z,94734.06
2023-05-23T23:10:06.735Z,94735.75
2023-05-23T23:12:33.101Z,94735.97
2023-05-23T23:14:59.482Z,94734.75
2023-05-23T23:17:25.877Z,94732.69
2023-05-23T23:19:52.241Z,94737.56
2023-05-23T23:22:18.624Z,94730.72
2023-05-23T23:24:45.047Z,94730.06
2023-05-23T23:27:11.433Z,94738.81
2023-05-23T23:29:37.797Z,94744.06
2023-05-23T23:32:04.143Z,94734.22
2023-05-23T23:34:30.535Z,94738.72
2023-05-23T23:36:56.937Z,94741.25
2023-05-23T23:39:23.307Z,94730.13
2023-05-23T23:41:49.660Z,94725.09
2023-05-23T23:44:16.008Z,94733.03
2023-05-23T23:46:42.434Z,94730.44
2023-05-23T23:49:08.799Z,94726.38
2023-05-23T23:51:35.145Z,94727.19
2023-05-23T23:54:01.513Z,94729.03
2023-05-23T23:56:27.878Z,94724.81
2023-05-23T23:58:54.275Z,94724.00
